createdAt,value
2019-03-23T00:02:14.121Z,18.20
2019-03-23T00:04:44.629Z,17.75
2019-03-23T00:07:15.157Z,18.55
2019-03-23T00:09:45.216Z,17.90
2019-03-23T00:12:15.356Z,18.62
2019-03-23T00:14:45.488Z,18.67
2019-03-23T00:17:15.569Z,17.48
2019-03-23T00:19:45.952Z,18.07
2019-03-23T00:22:16.095Z,19.45
2019-03-23T00:24:46.164Z,18.35
2019-03-23T00:27:16.314Z,18.32
2019-03-23T00:29:46.449Z,18.32
2019-03-23T00:32:16.864Z,16.95
2019-03-23T00:34:47.284Z,15.95
2019-03-23T00:37:17.322Z,17.30
2019-03-23T00:39:47.462Z,16.12
2019-03-23T00:42:17.541Z,16.55
2019-03-23T00:44:47.617Z,16.30
2019-03-23T00:47:17.688Z,17.60
2019-03-23T00:49:47.757Z,16.95
2019-03-23T00:52:18.266Z,16.62
2019-03-23T00:54:48.857Z,18.23
2019-03-23T00:57:19.292Z,16.73
2019-03-23T00:59:49.299Z,17.27
2019-03-23T01:02:19.597Z,16.65
2019-03-23T01:04:49.762Z,16.73
2019-03-23T01:07:20.181Z,16.87
2019-03-23T01:09:50.261Z,18.77
2019-03-23T01:12:20.316Z,16.27
2019-03-23T01:14:50.332Z,15.93
2019-03-23T01:17:20.471Z,16.97
2019-03-23T01:19:50.769Z,16.35
2019-03-23T01:22:21.873Z,16.52
2019-03-23T01:24:52.023Z,17.17
2019-03-23T01:27:22.386Z,16.60
2019-03-23T01:29:53.523Z,15.58
2019-03-23T01:32:23.594Z,17.75
2019-03-23T01:34:53.757Z,16.40
2019-03-23T01:37:23.924Z,16.32
2019-03-23T01:39:53.998Z,15.30
2019-03-23T01:42:24.009Z,16.73
2019-03-23T01:44:54.007Z,17.65
2019-03-23T01:47:24.088Z,16.73
2019-03-23T01:49:54.457Z,14.95
2019-03-23T01:52:24.880Z,15.75
2019-03-23T01:54:56.013Z,15.15
2019-03-23T01:57:26.552Z,15.58
2019-03-23T01:59:56.699Z,15.15
2019-03-23T02:02:26.847Z,16.95
2019-03-23T02:04:57.429Z,14.63
2019-03-23T02:07:27.637Z,15.05
2019-03-23T02:09:57.849Z,15.40
2019-03-23T02:12:28.313Z,14.75
2019-03-23T02:14:58.832Z,13.93
2019-03-23T02:17:28.897Z,13.48
2019-03-23T02:19:58.977Z,14.58
2019-03-23T02:22:29.180Z,14.43
2019-03-23T02:24:59.193Z,14.07
2019-03-23T02:27:29.635Z,12.70
2019-03-23T02:30:00.073Z,12.90
2019-03-23T02:32:30.045Z,12.68
2019-03-23T02:35:00.142Z,12.85
2019-03-23T02:37:30.523Z,13.32
2019-03-23T02:40:01.501Z,12.43
2019-03-23T02:42:31.636Z,13.13
2019-03-23T02:45:01.680Z,11.60
2019-03-23T02:47:31.711Z,12.68
2019-03-23T02:50:01.881Z,12.68
2019-03-23T02:52:33.379Z,12.55
2019-03-23T02:55:04.028Z,13.53
2019-03-23T02:57:34.169Z,13.03
2019-03-23T03:00:06.865Z,13.32
2019-03-23T03:02:37.176Z,12.43
2019-03-23T03:05:11.067Z,12.58
2019-03-23T03:07:43.310Z,13.48
2019-03-23T03:10:34.321Z,12.47
2019-03-23T03:13:04.475Z,13.93
2019-03-23T03:15:34.620Z,11.93
2019-03-23T03:18:06.285Z,13.60
2019-03-23T03:20:36.429Z,12.93
2019-03-23T03:23:07.022Z,13.70
2019-03-23T03:25:37.449Z,11.68
2019-03-23T03:28:07.738Z,12.60
2019-03-23T03:30:37.750Z,12.63
2019-03-23T03:33:07.898Z,11.70
2019-03-23T03:35:38.039Z,11.73
2019-03-23T03:38:08.178Z,12.53
2019-03-23T03:40:38.717Z,10.53
2019-03-23T03:43:08.867Z,9.93
2019-03-23T03:45:38.933Z,9.13
2019-03-23T03:48:08.999Z,8.85
2019-03-23T03:50:39.144Z,9.38
2019-03-23T03:53:09.211Z,7.95
2019-03-23T03:55:39.665Z,8.30
2019-03-23T03:58:10.182Z,7.22
2019-03-23T04:00:40.318Z,8.50
2019-03-23T04:03:10.446Z,7.50
2019-03-23T04:05:40.574Z,6.87
2019-03-23T04:08:12.088Z,6.75
2019-03-23T04:10:42.421Z,7.25
2019-03-23T04:13:12.496Z,7.15
2019-03-23T04:15:42.800Z,5.97
2019-03-23T04:18:12.791Z,6.55
2019-03-23T04:20:42.921Z,5.83
2019-03-23T04:23:13.222Z,5.65
2019-03-23T04:25:43.218Z,5.20
2019-03-23T04:28:13.193Z,5.33
2019-03-23T04:30:43.289Z,5.62
2019-03-23T04:33:13.437Z,6.45
2019-03-23T04:35:43.567Z,5.70
2019-03-23T04:38:22.151Z,4.80
2019-03-23T04:40:45.701Z,5.78
2019-03-23T04:43:16.120Z,5.42
2019-03-23T04:45:46.179Z,4.87
2019-03-23T04:48:16.679Z,5.67
2019-03-23T04:50:46.799Z,5.00
2019-03-23T04:53:17.205Z,5.53
2019-03-23T04:55:47.655Z,5.22
2019-03-23T04:58:17.703Z,6.60
2019-03-23T05:00:48.199Z,7.37
2019-03-23T05:03:18.334Z,7.95
2019-03-23T05:05:48.395Z,8.08
2019-03-23T05:08:18.473Z,6.65
2019-03-23T05:10:48.987Z,7.30
2019-03-23T05:13:19.154Z,6.97
2019-03-23T05:15:49.293Z,5.95
2019-03-23T05:18:19.291Z,6.08
2019-03-23T05:20:49.428Z,5.40
2019-03-23T05:23:19.564Z,5.40
2019-03-23T05:25:49.897Z,5.40
2019-03-23T05:28:20.347Z,5.37
2019-03-23T05:30:50.752Z,4.92
2019-03-23T05:33:20.870Z,5.08
2019-03-23T05:35:51.086Z,5.30
2019-03-23T05:38:22.029Z,4.22
2019-03-23T05:40:52.214Z,4.55
2019-03-23T05:43:22.681Z,4.83
2019-03-23T05:45:53.719Z,4.17
2019-03-23T05:48:24.857Z,4.58
2019-03-23T05:50:54.920Z,5.20
2019-03-23T05:53:24.979Z,5.22
2019-03-23T05:55:55.101Z,7.00
2019-03-23T05:58:25.109Z,6.85
2019-03-23T06:00:55.530Z,5.62
2019-03-23T06:03:25.994Z,4.62
2019-03-23T06:05:56.053Z,5.10
2019-03-23T06:08:26.269Z,5.67
2019-03-23T06:10:56.337Z,5.55
2019-03-23T06:13:26.673Z,6.95
2019-03-23T06:15:56.813Z,6.40
2019-03-23T06:18:26.882Z,6.20
2019-03-23T06:20:58.196Z,6.62
2019-03-23T06:23:28.609Z,6.92
2019-03-23T06:25:58.750Z,6.17
2019-03-23T06:28:28.939Z,7.08
2019-03-23T06:30:58.958Z,6.55
2019-03-23T06:33:29.035Z,5.65
2019-03-23T06:35:59.033Z,6.37
2019-03-23T06:38:29.445Z,6.30
2019-03-23T06:40:59.580Z,6.45
2019-03-23T06:43:31.176Z,6.20
2019-03-23T06:46:01.612Z,7.42
2019-03-23T06:48:31.822Z,6.58
2019-03-23T06:51:03.337Z,7.85
2019-03-23T06:53:33.482Z,7.05
2019-03-23T06:56:03.540Z,7.17
2019-03-23T06:58:33.957Z,7.78
2019-03-23T07:01:04.013Z,7.00
2019-03-23T07:03:34.402Z,7.35
2019-03-23T07:06:04.466Z,8.20
2019-03-23T07:08:34.474Z,7.08
2019-03-23T07:11:04.612Z,6.42
2019-03-23T07:13:34.968Z,6.03
2019-03-23T07:16:05.114Z,6.45
2019-03-23T07:18:35.242Z,6.58
2019-03-23T07:21:05.448Z,5.28
2019-03-23T07:23:35.583Z,6.45
2019-03-23T07:26:06.725Z,7.83
2019-03-23T07:28:36.881Z,7.42
2019-03-23T07:31:07.052Z,7.60
2019-03-23T07:33:37.092Z,6.28
2019-03-23T07:36:07.237Z,6.08
2019-03-23T07:38:38.342Z,7.28
2019-03-23T07:41:08.754Z,7.55
2019-03-23T07:43:39.892Z,7.37
2019-03-23T07:46:11.089Z,8.40
2019-03-23T07:48:41.243Z,8.58
2019-03-23T07:51:11.303Z,7.00
2019-03-23T07:53:41.707Z,7.58
2019-03-23T07:56:11.776Z,7.58
2019-03-23T07:58:41.880Z,9.05
2019-03-23T08:01:12.018Z,7.42
2019-03-23T08:03:42.152Z,8.40
2019-03-23T08:06:12.227Z,7.70
2019-03-23T08:08:42.425Z,7.47
2019-03-23T08:11:12.954Z,7.08
2019-03-23T08:13:43.009Z,6.67
2019-03-23T08:16:13.218Z,7.03
2019-03-23T08:18:44.270Z,7.67
2019-03-23T08:21:14.753Z,8.23
2019-03-23T08:23:44.877Z,7.28
2019-03-23T08:26:15.315Z,8.35
2019-03-23T08:28:45.747Z,9.70
2019-03-23T08:31:16.872Z,6.78
2019-03-23T08:33:47.410Z,10.98
2019-03-23T08:36:17.618Z,12.00
2019-03-23T08:38:47.625Z,10.23
2019-03-23T08:41:17.762Z,12.10
2019-03-23T08:43:47.835Z,11.75
2019-03-23T08:46:17.965Z,9.90
2019-03-23T08:48:48.101Z,8.58
2019-03-23T08:51:19.217Z,8.60
2019-03-23T08:53:49.792Z,8.20
2019-03-23T08:56:19.848Z,8.18
2019-03-23T08:58:48.840Z,7.30
2019-03-23T09:01:18.828Z,7.80
2019-03-23T09:03:52.770Z,6.95
2019-03-23T09:06:20.801Z,9.58
2019-03-23T09:08:51.335Z,7.67
2019-03-23T09:11:21.466Z,9.15
2019-03-23T09:13:51.615Z,8.58
2019-03-23T09:16:21.629Z,7.87
2019-03-23T09:18:51.690Z,7.72
2019-03-23T09:21:21.892Z,8.28
2019-03-23T09:23:53.378Z,11.45
2019-03-23T09:26:23.397Z,7.62
2019-03-23T09:28:53.527Z,7.90
2019-03-23T09:31:23.738Z,8.20
2019-03-23T09:33:53.871Z,6.72
2019-03-23T09:36:24.001Z,6.70
2019-03-23T09:38:54.141Z,12.25
2019-03-23T09:41:25.290Z,7.53
2019-03-23T09:43:55.349Z,7.47
2019-03-23T09:46:25.525Z,8.40
2019-03-23T09:48:55.909Z,8.45
2019-03-23T09:51:26.049Z,7.05
2019-03-23T09:53:56.332Z,7.60
2019-03-23T09:56:26.775Z,7.75
2019-03-23T09:58:57.848Z,7.72
2019-03-23T10:01:28.350Z,7.83
2019-03-23T10:03:58.474Z,7.47
2019-03-23T10:06:28.481Z,8.33
2019-03-23T10:08:58.846Z,7.62
2019-03-23T10:11:29.035Z,7.55
2019-03-23T10:13:59.176Z,7.05
2019-03-23T10:16:29.303Z,7.47
2019-03-23T10:18:59.437Z,7.45
2019-03-23T10:21:29.497Z,7.70
2019-03-23T10:23:59.715Z,7.00
2019-03-23T10:26:29.833Z,7.25
2019-03-23T10:29:00.182Z,7.60
2019-03-23T10:31:30.313Z,6.35
2019-03-23T10:34:00.383Z,7.50
2019-03-23T10:36:30.746Z,7.50
2019-03-23T10:39:00.812Z,7.53
2019-03-23T10:41:32.715Z,7.50
2019-03-23T10:44:02.707Z,7.17
2019-03-23T10:46:32.790Z,7.35
2019-03-23T10:49:03.282Z,7.10
2019-03-23T10:51:33.451Z,7.50
2019-03-23T10:54:04.149Z,7.33
2019-03-23T10:56:34.261Z,7.20
2019-03-23T10:59:04.393Z,8.03
2019-03-23T11:01:34.623Z,7.47
2019-03-23T11:04:05.124Z,7.42
2019-03-23T11:06:35.182Z,7.87
2019-03-23T11:09:07.119Z,7.78
2019-03-23T11:11:37.116Z,7.75
2019-03-23T11:14:07.252Z,7.85
2019-03-23T11:16:37.323Z,7.65
2019-03-23T11:19:13.371Z,7.22
2019-03-23T11:21:39.668Z,7.37
2019-03-23T11:24:09.812Z,7.17
2019-03-23T11:26:40.300Z,7.62
2019-03-23T11:29:10.835Z,7.90
2019-03-23T11:31:41.364Z,7.55
2019-03-23T11:34:17.732Z,7.65
2019-03-23T11:36:43.577Z,7.53
2019-03-23T11:39:13.743Z,7.37
2019-03-23T11:41:43.878Z,7.15
2019-03-23T11:44:14.018Z,8.28
2019-03-23T11:46:44.166Z,8.53
2019-03-23T11:49:14.229Z,9.25
2019-03-23T11:51:44.443Z,7.80
2019-03-23T11:54:14.570Z,8.20
2019-03-23T11:56:44.714Z,8.58
2019-03-23T11:59:14.842Z,7.90
2019-03-23T12:01:51.688Z,8.23
2019-03-23T12:04:16.945Z,7.80
2019-03-23T12:06:47.026Z,7.58
2019-03-23T12:09:17.564Z,9.10
2019-03-23T12:11:47.695Z,8.28
2019-03-23T12:14:17.757Z,8.65
2019-03-23T12:16:49.098Z,7.90
2019-03-23T12:19:19.232Z,7.45
2019-03-23T12:21:50.878Z,7.12
2019-03-23T12:24:21.545Z,8.10
2019-03-23T12:26:51.610Z,7.72
2019-03-23T12:29:21.749Z,7.55
2019-03-23T12:31:51.818Z,7.33
2019-03-23T12:34:21.886Z,7.35
2019-03-23T12:36:52.023Z,7.62
2019-03-23T12:39:22.166Z,10.30
2019-03-23T12:41:52.584Z,8.03
2019-03-23T12:44:23.018Z,7.92
2019-03-23T12:46:53.215Z,8.03
2019-03-23T12:49:23.669Z,7.47
2019-03-23T12:51:54.094Z,8.18
2019-03-23T12:54:24.165Z,7.58
2019-03-23T12:56:54.240Z,9.20
2019-03-23T12:59:24.369Z,9.48
2019-03-23T13:01:54.731Z,9.60
2019-03-23T13:04:24.861Z,10.25
2019-03-23T13:06:55.012Z,9.75
2019-03-23T13:09:25.061Z,9.48
2019-03-23T13:11:55.067Z,9.10
2019-03-23T13:14:25.060Z,8.70
2019-03-23T13:16:55.416Z,8.68
2019-03-23T13:19:25.550Z,8.80
2019-03-23T13:21:56.034Z,9.88
2019-03-23T13:24:26.090Z,7.42
2019-03-23T13:26:56.265Z,9.05
2019-03-23T13:29:27.386Z,8.98
2019-03-23T13:31:57.516Z,8.78
2019-03-23T13:34:27.669Z,7.92
2019-03-23T13:36:57.798Z,8.38
2019-03-23T13:39:27.796Z,8.48
2019-03-23T13:41:58.225Z,9.88
2019-03-23T13:44:28.227Z,7.75
2019-03-23T13:46:59.292Z,8.53
2019-03-23T13:49:30.393Z,7.42
2019-03-23T13:52:01.880Z,8.65
2019-03-23T13:54:33.072Z,7.60
2019-03-23T13:57:03.200Z,6.15
2019-03-23T13:59:33.573Z,7.70
2019-03-23T14:02:03.763Z,6.12
2019-03-23T14:04:34.116Z,5.78
2019-03-23T14:07:04.174Z,5.95
2019-03-23T14:09:34.237Z,8.70
2019-03-23T14:12:04.564Z,6.05
2019-03-23T14:14:34.675Z,7.85
2019-03-23T14:17:05.074Z,6.20
2019-03-23T14:19:35.211Z,8.93
2019-03-23T14:22:05.347Z,8.33
2019-03-23T14:24:35.476Z,6.62
2019-03-23T14:27:05.539Z,7.45
2019-03-23T14:29:35.665Z,6.70
2019-03-23T14:32:05.814Z,6.92
2019-03-23T14:34:35.878Z,6.95
2019-03-23T14:37:06.321Z,6.60
2019-03-23T14:39:36.500Z,5.58
2019-03-23T14:42:06.649Z,11.20
2019-03-23T14:44:36.861Z,6.75
2019-03-23T14:47:06.915Z,11.90
2019-03-23T14:49:37.131Z,7.75
2019-03-23T14:52:07.193Z,12.35
2019-03-23T14:54:37.343Z,9.90
2019-03-23T14:57:07.653Z,9.65
2019-03-23T14:59:38.086Z,12.78
2019-03-23T15:02:08.145Z,10.10
2019-03-23T15:04:38.239Z,10.00
2019-03-23T15:07:08.337Z,9.55
2019-03-23T15:09:38.960Z,7.75
2019-03-23T15:12:14.920Z,8.83
2019-03-23T15:14:41.170Z,7.47
2019-03-23T15:17:11.505Z,8.73
2019-03-23T15:19:41.580Z,10.68
2019-03-23T15:22:11.652Z,8.63
2019-03-23T15:24:41.790Z,8.13
2019-03-23T15:27:11.872Z,7.00
2019-03-23T15:29:41.924Z,8.73
2019-03-23T15:32:12.138Z,10.68
2019-03-23T15:34:42.496Z,6.97
2019-03-23T15:37:12.496Z,9.10
2019-03-23T15:39:43.566Z,10.38
2019-03-23T15:42:13.640Z,8.15
2019-03-23T15:44:44.028Z,8.98
2019-03-23T15:47:14.093Z,10.68
2019-03-23T15:49:44.165Z,11.00
2019-03-23T15:52:14.268Z,8.45
2019-03-23T15:54:44.702Z,6.87
2019-03-23T15:57:14.706Z,8.03
2019-03-23T15:59:44.773Z,8.60
2019-03-23T16:02:14.901Z,8.08
2019-03-23T16:04:44.901Z,5.78
2019-03-23T16:07:15.302Z,7.00
2019-03-23T16:09:45.443Z,5.92
2019-03-23T16:12:15.501Z,6.83
2019-03-23T16:14:45.570Z,5.75
2019-03-23T16:17:15.630Z,6.62
2019-03-23T16:19:46.114Z,8.38
2019-03-23T16:22:16.173Z,7.00
2019-03-23T16:24:46.229Z,6.55
2019-03-23T16:27:16.345Z,7.25
2019-03-23T16:29:46.413Z,10.20
2019-03-23T16:32:16.807Z,10.20
2019-03-23T16:34:46.877Z,6.42
2019-03-23T16:37:17.249Z,4.65
2019-03-23T16:39:47.389Z,5.12
2019-03-23T16:42:17.517Z,9.30
2019-03-23T16:44:47.728Z,9.95
2019-03-23T16:47:17.857Z,10.40
2019-03-23T16:49:47.962Z,10.55
2019-03-23T16:52:18.026Z,8.48
2019-03-23T16:54:48.028Z,8.03
2019-03-23T16:57:18.291Z,10.72
2019-03-23T16:59:48.298Z,11.90
2019-03-23T17:02:18.756Z,11.28
2019-03-23T17:04:49.258Z,10.72
2019-03-23T17:07:19.332Z,11.10
2019-03-23T17:09:49.620Z,11.50
2019-03-23T17:12:19.707Z,10.13
2019-03-23T17:14:49.846Z,10.85
2019-03-23T17:17:20.912Z,10.80
2019-03-23T17:19:51.049Z,10.82
2019-03-23T17:22:21.126Z,11.15
2019-03-23T17:24:51.267Z,11.08
2019-03-23T17:27:21.276Z,12.53
2019-03-23T17:29:51.419Z,12.73
2019-03-23T17:32:21.831Z,14.87
2019-03-23T17:34:51.898Z,15.05
2019-03-23T17:37:22.377Z,15.20
2019-03-23T17:39:52.448Z,13.98
2019-03-23T17:42:22.923Z,14.40
2019-03-23T17:44:53.242Z,13.58
2019-03-23T17:47:23.372Z,12.93
2019-03-23T17:49:53.522Z,14.43
2019-03-23T17:52:23.658Z,12.10
2019-03-23T17:54:53.741Z,12.50
2019-03-23T17:57:24.153Z,13.03
2019-03-23T17:59:54.302Z,13.32
2019-03-23T18:02:24.804Z,10.48
2019-03-23T18:04:54.945Z,7.53
2019-03-23T18:07:25.076Z,7.28
2019-03-23T18:09:56.208Z,9.68
2019-03-23T18:12:26.422Z,9.38
2019-03-23T18:14:56.636Z,12.43
2019-03-23T18:17:26.852Z,11.93
2019-03-23T18:19:56.991Z,11.68
2019-03-23T18:22:27.134Z,12.50
2019-03-23T18:24:57.277Z,12.15
2019-03-23T18:27:27.741Z,13.18
2019-03-23T18:29:58.268Z,12.33
2019-03-23T18:32:28.337Z,12.63
2019-03-23T18:34:58.404Z,13.40
2019-03-23T18:37:28.825Z,13.75
2019-03-23T18:39:59.253Z,14.40
2019-03-23T18:42:29.775Z,14.70
2019-03-23T18:45:00.371Z,14.10
2019-03-23T18:47:30.841Z,13.85
2019-03-23T18:50:01.272Z,13.88
2019-03-23T18:52:31.453Z,13.83
2019-03-23T18:55:01.597Z,13.38
2019-03-23T18:57:32.145Z,13.62
2019-03-23T19:00:02.218Z,13.45
2019-03-23T19:02:34.327Z,13.70
2019-03-23T19:05:06.070Z,15.18
2019-03-23T19:07:36.516Z,14.85
2019-03-23T19:10:07.153Z,13.45
2019-03-23T19:12:37.514Z,14.18
2019-03-23T19:15:07.925Z,13.50
2019-03-23T19:17:38.323Z,12.63
2019-03-23T19:20:08.852Z,14.40
2019-03-23T19:22:38.909Z,13.38
2019-03-23T19:25:16.971Z,14.05
2019-03-23T19:27:40.822Z,15.08
2019-03-23T19:30:11.337Z,15.20
2019-03-23T19:32:41.406Z,13.93
2019-03-23T19:35:11.917Z,15.13
2019-03-23T19:37:42.068Z,13.78
2019-03-23T19:40:12.671Z,14.65
2019-03-23T19:42:43.138Z,14.73
2019-03-23T19:45:13.234Z,15.25
2019-03-23T19:47:43.398Z,13.80
2019-03-23T19:50:13.942Z,21.50
2019-03-23T19:52:44.014Z,15.08
2019-03-23T19:55:14.250Z,13.95
2019-03-23T19:57:44.408Z,14.00
2019-03-23T20:00:15.033Z,15.35
2019-03-23T20:02:45.109Z,13.53
2019-03-23T20:05:15.555Z,14.05
2019-03-23T20:07:46.137Z,14.30
2019-03-23T20:10:16.678Z,12.93
2019-03-23T20:12:46.825Z,13.38
2019-03-23T20:15:17.237Z,13.08
2019-03-23T20:17:47.238Z,12.33
2019-03-23T20:20:19.974Z,12.98
2019-03-23T20:22:49.838Z,13.48
2019-03-23T20:25:19.907Z,12.75
2019-03-23T20:27:49.906Z,13.93
2019-03-23T20:30:20.317Z,13.03
2019-03-23T20:32:50.527Z,13.40
2019-03-23T20:35:20.749Z,13.53
2019-03-23T20:37:50.893Z,13.43
2019-03-23T20:40:21.049Z,12.60
2019-03-23T20:42:51.198Z,13.40
2019-03-23T20:45:29.417Z,12.50
2019-03-23T20:47:59.832Z,13.72
2019-03-23T20:50:30.096Z,12.30
2019-03-23T20:53:00.305Z,13.20
2019-03-23T20:55:30.821Z,13.35
2019-03-23T20:58:00.902Z,13.80
2019-03-23T21:00:30.903Z,20.50
2019-03-23T21:03:01.115Z,20.92
2019-03-23T21:05:34.218Z,19.55
2019-03-23T21:08:03.023Z,22.80
2019-03-23T21:10:33.093Z,22.05
2019-03-23T21:13:03.235Z,18.07
2019-03-23T21:15:33.371Z,17.85
2019-03-23T21:18:03.513Z,18.95
2019-03-23T21:20:33.579Z,19.30
2019-03-23T21:23:03.846Z,13.93
2019-03-23T21:25:34.194Z,14.63
2019-03-23T21:28:04.706Z,15.05
2019-03-23T21:30:34.858Z,14.83
2019-03-23T21:33:05.068Z,13.70
2019-03-23T21:35:35.137Z,14.85
2019-03-23T21:38:05.201Z,15.03
2019-03-23T21:40:35.718Z,14.93
2019-03-23T21:43:05.863Z,16.17
2019-03-23T21:45:36.002Z,14.73
2019-03-23T21:48:06.383Z,15.03
2019-03-23T21:50:46.829Z,13.80
2019-03-23T21:53:08.284Z,14.60
2019-03-23T21:55:38.429Z,12.88
2019-03-23T21:58:08.498Z,14.65
2019-03-23T22:00:38.584Z,13.55
2019-03-23T22:03:09.010Z,13.28
2019-03-23T22:05:39.019Z,12.82
2019-03-23T22:08:09.022Z,13.32
2019-03-23T22:10:39.169Z,13.75
2019-03-23T22:13:09.309Z,13.05
2019-03-23T22:15:39.364Z,12.68
2019-03-23T22:18:09.762Z,13.50
2019-03-23T22:20:39.899Z,14.65
2019-03-23T22:23:10.049Z,14.15
2019-03-23T22:25:40.044Z,15.93
2019-03-23T22:28:10.055Z,15.03
2019-03-23T22:30:40.127Z,15.85
2019-03-23T22:33:10.476Z,17.45
2019-03-23T22:35:40.478Z,17.50
2019-03-23T22:38:10.639Z,18.40
2019-03-23T22:40:41.158Z,18.48
2019-03-23T22:43:11.289Z,17.45
2019-03-23T22:45:41.379Z,16.97
2019-03-23T22:48:11.444Z,18.10
2019-03-23T22:50:41.597Z,18.32
2019-03-23T22:53:11.729Z,19.07
2019-03-23T22:55:41.740Z,18.23
2019-03-23T22:58:12.093Z,18.20
2019-03-23T23:00:43.806Z,16.52
2019-03-23T23:03:14.410Z,16.30
2019-03-23T23:05:44.930Z,16.30
2019-03-23T23:08:16.069Z,14.78
2019-03-23T23:10:46.220Z,17.42
2019-03-23T23:13:16.211Z,16.50
2019-03-23T23:15:46.357Z,16.10
2019-03-23T23:18:16.412Z,16.42
2019-03-23T23:20:46.657Z,16.17
2019-03-23T23:23:19.934Z,16.65
2019-03-23T23:25:50.450Z,18.05
2019-03-23T23:28:20.594Z,15.45
2019-03-23T23:30:50.810Z,15.60
2019-03-23T23:33:21.225Z,16.27
2019-03-23T23:35:51.430Z,14.15
2019-03-23T23:38:21.887Z,16.35
2019-03-23T23:40:52.412Z,15.10
2019-03-23T23:43:22.567Z,16.35
2019-03-23T23:45:52.700Z,15.13
2019-03-23T23:48:22.786Z,15.23
2019-03-23T23:50:52.915Z,13.98
2019-03-23T23:53:22.912Z,14.68
2019-03-23T23:55:53.057Z,14.45
2019-03-23T23:58:23.140Z,14.47
